Time;durP1;ratioP1;P1;durP2;ratioP2;P2;SDS_P1;SDS_P2;PMS_P1;PMS_P2;Temp;Humidity;BMP_temperature;BMP_pressure;BME280_temperature;BME280_humidity;BME280_pressure;Samples;Min_cycle;Max_cycle;Signal;HPM_P1;HPM_P2
2021/12/27 00:00:48;;;;;;;12.53;9.73;;;;;;;6.89;100.00;97043.00;5100268;28;20235;-63
2021/12/27 00:03:15;;;;;;;11.13;8.77;;;;;;;6.91;100.00;97045.53;5097172;28;20222;-64
2021/12/27 00:05:41;;;;;;;12.20;9.17;;;;;;;6.90;100.00;97039.44;5097399;28;20260;-63
2021/12/27 00:08:08;;;;;;;9.13;8.17;;;;;;;6.92;100.00;97042.81;5105755;28;20210;-63
2021/12/27 00:10:35;;;;;;;11.37;8.33;;;;;;;6.95;100.00;97037.31;5100821;28;20214;-63
2021/12/27 00:13:04;;;;;;;11.43;9.33;;;;;;;6.97;100.00;97035.41;5097024;28;20218;-63
2021/12/27 00:15:31;;;;;;;13.47;9.80;;;;;;;6.96;100.00;97033.72;5097314;28;20214;-63
2021/12/27 00:17:57;;;;;;;10.00;8.43;;;;;;;6.96;100.00;97038.16;5095164;28;20702;-63
2021/12/27 00:20:24;;;;;;;11.07;9.33;;;;;;;6.94;100.00;97030.41;5099799;28;20211;-63
2021/12/27 00:22:51;;;;;;;10.63;9.20;;;;;;;6.94;100.00;97030.41;5096913;28;20221;-63
2021/12/27 00:25:19;;;;;;;13.13;8.23;;;;;;;6.93;100.00;97031.34;5097094;28;20250;-62
2021/12/27 00:27:46;;;;;;;10.33;8.27;;;;;;;6.92;100.00;97029.69;5096781;28;20210;-62
2021/12/27 00:30:15;;;;;;;11.67;9.27;;;;;;;6.91;100.00;97025.34;5099080;28;20235;-63
2021/12/27 00:32:43;;;;;;;12.13;9.83;;;;;;;6.89;100.00;97015.94;5097010;28;20252;-63
2021/12/27 00:35:11;;;;;;;12.47;9.43;;;;;;;6.84;100.00;97032.00;5096532;28;20216;-63
2021/12/27 00:37:37;;;;;;;11.23;9.20;;;;;;;6.84;100.00;97028.53;5096950;28;20221;-63
2021/12/27 00:40:05;;;;;;;12.13;9.87;;;;;;;6.80;100.00;97022.69;5099250;28;20214;-63
2021/12/27 00:42:32;;;;;;;12.67;10.10;;;;;;;6.82;100.00;97010.25;5096579;28;20222;-63
2021/12/27 00:44:58;;;;;;;12.00;9.60;;;;;;;6.84;100.00;97012.78;5094940;28;20263;-63
2021/12/27 00:47:26;;;;;;;11.57;9.73;;;;;;;6.85;100.00;97012.66;5096574;28;20218;-63
2021/12/27 00:49:53;;;;;;;11.60;9.50;;;;;;;6.89;100.00;97023.81;5098944;28;20210;-63
2021/12/27 00:52:19;;;;;;;14.40;10.27;;;;;;;6.91;100.00;97019.28;5096592;28;20213;-63
2021/12/27 00:54:46;;;;;;;12.67;9.70;;;;;;;6.92;100.00;97027.03;5096586;28;20214;-63
2021/12/27 00:57:12;;;;;;;13.60;9.87;;;;;;;6.91;100.00;97020.09;5096559;28;20224;-63
2021/12/27 00:59:39;;;;;;;11.77;9.53;;;;;;;6.91;100.00;97020.09;5098261;28;20215;-63
2021/12/27 01:02:05;;;;;;;12.30;9.70;;;;;;;6.91;100.00;97025.34;5097146;28;20575;-63
2021/12/27 01:04:33;;;;;;;13.23;10.23;;;;;;;6.90;100.00;97017.59;5096539;28;20238;-62
2021/12/27 01:07:00;;;;;;;12.03;9.93;;;;;;;6.88;100.00;97012.44;5097600;28;20221;-63
2021/12/27 01:09:36;;;;;;;12.20;9.90;;;;;;;6.87;100.00;97008.16;5110655;28;20218;-63
2021/12/27 01:12:27;;;;;;;13.43;10.50;;;;;;;6.89;100.00;97016.75;5096029;28;20211;-64
2021/12/27 01:15:08;;;;;;;12.87;10.13;;;;;;;6.91;100.00;97014.03;5096196;28;20221;-63
2021/12/27 01:17:36;;;;;;;12.67;9.80;;;;;;;6.92;100.00;97016.53;5098775;28;20251;-63
2021/12/27 01:20:06;;;;;;;12.30;9.70;;;;;;;6.93;100.00;97012.97;5096196;28;20213;-63
2021/12/27 01:22:32;;;;;;;15.30;10.43;;;;;;;6.93;100.00;97007.72;5095874;28;20215;-63
2021/12/27 01:24:59;;;;;;;14.00;9.93;;;;;;;6.94;100.00;97004.13;5095894;28;20277;-63
2021/12/27 01:27:26;;;;;;;13.40;10.03;;;;;;;6.94;100.00;97009.38;5108352;28;20219;-63
2021/12/27 01:29:52;;;;;;;13.17;9.83;;;;;;;6.91;100.00;97014.84;5110988;28;20264;-63
2021/12/27 01:32:19;;;;;;;13.07;10.67;;;;;;;6.89;100.00;97011.50;5110901;28;20214;-63
2021/12/27 01:34:46;;;;;;;13.60;10.50;;;;;;;6.90;100.00;97012.34;5111051;28;20301;-63
2021/12/27 01:37:17;;;;;;;12.77;10.30;;;;;;;6.84;100.00;97013.59;5106365;28;20215;-63
2021/12/27 01:39:44;;;;;;;12.17;9.93;;;;;;;6.81;100.00;97018.25;5110801;28;20210;-63
2021/12/27 01:42:10;;;;;;;13.20;10.00;;;;;;;6.76;100.00;97018.59;5110660;28;20219;-63
2021/12/27 01:44:38;;;;;;;15.53;10.57;;;;;;;6.74;100.00;97017.88;5110601;28;20247;-63
2021/12/27 01:47:06;;;;;;;13.50;9.77;;;;;;;6.71;100.00;97015.44;5108117;28;20866;-63
2021/12/27 01:49:33;;;;;;;13.90;10.60;;;;;;;6.67;100.00;97015.78;5110690;28;20214;-63
2021/12/27 01:52:00;;;;;;;13.67;10.53;;;;;;;6.65;100.00;97017.69;5110560;28;20206;-63
2021/12/27 01:54:28;;;;;;;16.43;10.80;;;;;;;6.69;100.00;97025.22;5110668;28;20220;-63
2021/12/27 01:56:54;;;;;;;13.87;10.03;;;;;;;6.72;100.00;97025.00;5107763;28;20218;-63
2021/12/27 01:59:21;;;;;;;15.30;10.20;;;;;;;6.76;100.00;97015.09;5110806;28;20221;-63
2021/12/27 02:01:47;;;;;;;14.37;10.37;;;;;;;6.78;100.00;97005.34;5108966;28;20214;-63
2021/12/27 02:04:14;;;;;;;12.97;9.97;;;;;;;6.76;100.00;97005.44;5110818;28;20576;-63
2021/12/27 02:06:41;;;;;;;12.10;9.27;;;;;;;6.76;100.00;97005.44;5107764;28;20214;-63
2021/12/27 02:09:07;;;;;;;14.43;10.30;;;;;;;6.76;100.00;97000.19;5103939;28;20202;-63
2021/12/27 02:11:35;;;;;;;15.47;10.30;;;;;;;6.77;100.00;97001.88;5110694;28;20223;-63
2021/12/27 02:14:03;;;;;;;15.50;10.13;;;;;;;6.79;100.00;97010.47;5110504;28;20222;-63
2021/12/27 02:16:30;;;;;;;14.93;10.70;;;;;;;6.80;100.00;97006.06;5107644;28;20651;-63
2021/12/27 02:18:56;;;;;;;14.33;10.13;;;;;;;6.82;100.00;97005.00;5110629;28;20214;-63
2021/12/27 02:21:25;;;;;;;15.30;10.70;;;;;;;6.82;100.00;97005.00;5110528;28;20220;-63
2021/12/27 02:23:54;;;;;;;14.07;9.63;;;;;;;6.83;100.00;97004.06;5100328;28;20221;-63
2021/12/27 02:26:20;;;;;;;14.00;9.90;;;;;;;6.86;100.00;97001.22;5102076;28;20235;-63
2021/12/27 02:28:49;;;;;;;12.53;9.40;;;;;;;6.85;100.00;96996.91;5097806;28;20214;-63
2021/12/27 02:31:17;;;;;;;13.67;9.40;;;;;;;6.85;100.00;96991.66;5099529;28;20241;-63
2021/12/27 02:33:44;;;;;;;12.63;9.27;;;;;;;6.85;100.00;96988.19;5099370;28;20225;-64
2021/12/27 02:36:12;;;;;;;14.43;9.97;;;;;;;6.85;100.00;96993.44;5101720;28;20213;-63
2021/12/27 02:38:44;;;;;;;13.07;9.60;;;;;;;6.83;100.00;96980.44;5099291;28;20241;-64
2021/12/27 02:41:12;;;;;;;13.37;9.90;;;;;;;6.85;100.00;96983.78;5099130;28;20214;-63
2021/12/27 02:43:42;;;;;;;14.33;9.20;;;;;;;6.86;100.00;96990.72;5098892;28;20207;-63
2021/12/27 02:46:10;;;;;;;14.23;10.17;;;;;;;6.83;100.00;96984.84;5111605;28;20234;-63
2021/12/27 02:48:39;;;;;;;14.93;9.40;;;;;;;6.83;100.00;96996.19;5114145;28;20224;-63
2021/12/27 02:51:07;;;;;;;13.73;9.97;;;;;;;6.85;100.00;96990.81;5113801;28;20213;-63
2021/12/27 02:53:34;;;;;;;13.73;9.53;;;;;;;6.86;100.00;96988.09;5112736;28;20217;-63
2021/12/27 02:56:04;;;;;;;12.73;9.03;;;;;;;6.87;100.00;96987.16;5111212;28;20683;-63
2021/12/27 02:58:30;;;;;;;11.50;8.37;;;;;;;6.88;100.00;96985.34;5113958;28;20221;-63
2021/12/27 03:01:00;;;;;;;13.53;9.57;;;;;;;6.89;100.00;96990.47;5113985;28;20214;-64
2021/12/27 03:03:27;;;;;;;12.83;9.03;;;;;;;6.87;100.00;96997.66;5113007;28;20218;-63
2021/12/27 03:05:54;;;;;;;11.47;8.50;;;;;;;6.86;100.00;96995.97;5112530;28;20240;-63
2021/12/27 03:08:22;;;;;;;12.00;8.53;;;;;;;6.86;100.00;96989.88;5115511;28;20224;-63
2021/12/27 03:10:51;;;;;;;13.40;9.00;;;;;;;6.85;100.00;96983.78;5113934;28;20213;-63
2021/12/27 03:13:21;;;;;;;13.80;9.37;;;;;;;6.84;100.00;96982.09;5112827;28;20221;-63
2021/12/27 03:15:51;;;;;;;12.23;9.00;;;;;;;6.86;100.00;96985.47;5112705;28;20214;-63
2021/12/27 03:18:18;;;;;;;11.33;9.03;;;;;;;6.87;100.00;96975.78;5113513;28;20214;-63
2021/12/27 03:20:45;;;;;;;12.43;8.67;;;;;;;6.85;100.00;96994.28;5111974;28;20219;-63
2021/12/27 03:23:11;;;;;;;11.43;7.90;;;;;;;6.85;100.00;96994.28;5112004;28;20228;-63
2021/12/27 03:25:39;;;;;;;12.67;9.00;;;;;;;6.79;100.00;96988.63;5112453;28;20249;-63
2021/12/27 03:28:06;;;;;;;12.23;9.13;;;;;;;6.83;100.00;96983.06;5113058;28;20631;-63
2021/12/27 03:30:34;;;;;;;12.23;9.40;;;;;;;6.83;100.00;96980.44;5113159;28;20616;-63
2021/12/27 03:33:01;;;;;;;13.40;9.03;;;;;;;6.86;100.00;96984.63;5111703;28;20670;-63
2021/12/27 03:35:34;;;;;;;13.13;9.30;;;;;;;6.86;100.00;96980.22;5112115;28;20215;-63
2021/12/27 03:38:01;;;;;;;13.30;9.03;;;;;;;6.89;100.00;96979.16;5107770;28;20225;-64
2021/12/27 03:40:28;;;;;;;11.73;8.67;;;;;;;6.89;100.00;96974.72;5097867;28;20222;-63
2021/12/27 03:42:55;;;;;;;11.03;8.13;;;;;;;6.88;100.00;96970.44;5099744;28;20226;-63
2021/12/27 03:45:25;;;;;;;9.90;8.17;;;;;;;6.89;100.00;96974.72;5098084;28;20249;-63
2021/12/27 03:47:53;;;;;;;9.73;7.87;;;;;;;6.87;100.00;96971.38;5096706;28;20563;-63
2021/12/27 03:50:20;;;;;;;10.00;7.83;;;;;;;6.89;100.00;96966.03;5097608;28;20214;-63
2021/12/27 03:52:47;;;;;;;9.63;7.93;;;;;;;6.88;100.00;96962.56;5100181;28;20585;-63
2021/12/27 03:55:14;;;;;;;10.63;8.23;;;;;;;6.86;100.00;96966.25;5097884;28;20214;-63
2021/12/27 03:57:43;;;;;;;9.73;7.57;;;;;;;6.83;100.00;96959.41;5097679;28;20234;-64
2021/12/27 04:00:28;;;;;;;10.47;8.20;;;;;;;6.83;100.00;96951.53;5097747;28;20310;-63
2021/12/27 04:02:57;;;;;;;8.67;7.07;;;;;;;6.76;100.00;96950.31;5110789;28;20226;-63
2021/12/27 04:05:24;;;;;;;10.60;7.20;;;;;;;6.68;100.00;96955.28;5112745;28;20276;-63
2021/12/27 04:07:59;;;;;;;8.77;7.40;;;;;;;6.65;100.00;96955.50;5106782;28;20548;-63
2021/12/27 04:10:26;;;;;;;10.03;7.67;;;;;;;6.70;100.00;96963.88;5111296;28;20268;-63
2021/12/27 04:12:52;;;;;;;8.13;7.07;;;;;;;6.69;100.00;96956.97;5110606;28;20214;-64
2021/12/27 04:15:19;;;;;;;8.47;6.40;;;;;;;6.59;100.00;96961.19;5112386;28;20220;-63
2021/12/27 04:17:46;;;;;;;9.53;7.47;;;;;;;6.55;100.00;96954.50;5112479;28;20229;-63
2021/12/27 04:20:13;;;;;;;9.13;7.17;;;;;;;6.58;100.00;96956.91;5110844;28;20212;-63
2021/12/27 04:22:40;;;;;;;8.57;7.30;;;;;;;6.60;100.00;96957.63;5111159;28;20228;-63
2021/12/27 04:25:07;;;;;;;8.53;7.20;;;;;;;6.56;100.00;96950.94;5111958;28;20295;-63
2021/12/27 04:27:34;;;;;;;9.33;7.33;;;;;;;6.56;100.00;96948.31;5111900;28;20218;-63
2021/12/27 04:30:00;;;;;;;9.13;7.43;;;;;;;6.57;100.00;96957.00;5110709;28;20237;-63
2021/12/27 04:32:26;;;;;;;9.27;7.17;;;;;;;6.56;100.00;96950.06;5110691;28;20207;-63
2021/12/27 04:34:53;;;;;;;9.30;7.07;;;;;;;6.59;100.00;96960.38;5112076;28;20581;-63
2021/12/27 04:37:23;;;;;;;7.90;6.90;;;;;;;6.60;100.00;96951.53;5112043;28;20624;-63
2021/12/27 04:39:50;;;;;;;8.03;7.23;;;;;;;6.62;100.00;96955.75;5109429;28;20213;-63
2021/12/27 04:42:17;;;;;;;8.83;7.63;;;;;;;6.65;100.00;96960.75;5110481;28;20225;-64
2021/12/27 04:44:43;;;;;;;9.20;7.00;;;;;;;6.69;100.00;96962.22;5111770;28;20253;-64
2021/12/27 04:47:13;;;;;;;9.53;7.20;;;;;;;6.70;100.00;96963.88;5111099;28;20245;-64
2021/12/27 04:49:39;;;;;;;9.60;7.30;;;;;;;6.69;100.00;96962.22;5110088;28;20217;-64
2021/12/27 04:52:06;;;;;;;8.20;7.30;;;;;;;6.69;100.00;96953.50;5111183;28;20209;-64
2021/12/27 04:54:34;;;;;;;8.70;7.60;;;;;;;6.66;100.00;96957.16;5111452;28;20225;-64
2021/12/27 04:57:00;;;;;;;9.57;7.80;;;;;;;6.65;100.00;96947.63;5111580;28;20287;-64
2021/12/27 04:59:27;;;;;;;9.87;7.23;;;;;;;6.69;100.00;96956.13;5110672;28;20222;-64
2021/12/27 05:01:53;;;;;;;8.40;7.33;;;;;;;6.69;100.00;96943.84;5109709;28;20214;-64
2021/12/27 05:04:20;;;;;;;8.67;6.73;;;;;;;6.71;100.00;96949.81;5109709;28;20217;-64
2021/12/27 05:06:47;;;;;;;9.23;6.87;;;;;;;6.75;100.00;96950.41;5111367;28;20233;-65
2021/12/27 05:09:13;;;;;;;8.60;6.80;;;;;;;6.74;100.00;96949.59;5113147;28;20237;-65
2021/12/27 05:11:41;;;;;;;8.80;6.80;;;;;;;6.73;100.00;96947.91;5108959;28;20240;-64
2021/12/27 05:14:08;;;;;;;7.90;6.63;;;;;;;6.72;100.00;96943.59;5111375;28;20217;-65
2021/12/27 05:16:35;;;;;;;7.17;6.27;;;;;;;6.70;100.00;96952.53;5110951;28;20221;-65
2021/12/27 05:19:01;;;;;;;7.90;6.80;;;;;;;6.69;100.00;96945.63;5110982;28;20687;-65
2021/12/27 05:21:28;;;;;;;8.37;7.10;;;;;;;6.70;100.00;96953.38;5108671;28;20225;-65
2021/12/27 05:23:54;;;;;;;8.70;7.47;;;;;;;6.72;100.00;96945.41;5110913;28;20217;-65
2021/12/27 05:26:21;;;;;;;8.30;7.03;;;;;;;6.74;100.00;96943.50;5110680;28;20706;-65
2021/12/27 05:28:49;;;;;;;7.83;6.93;;;;;;;6.74;100.00;96939.09;5110750;28;20218;-65
2021/12/27 05:31:16;;;;;;;8.23;6.87;;;;;;;6.73;100.00;96936.56;5106287;28;20252;-65
2021/12/27 05:33:43;;;;;;;8.10;6.47;;;;;;;6.72;100.00;96930.47;5110917;28;20216;-65
2021/12/27 05:36:12;;;;;;;12.77;7.07;;;;;;;6.72;100.00;96940.97;5110800;28;20208;-65
2021/12/27 05:38:39;;;;;;;7.60;6.73;;;;;;;6.70;100.00;96937.63;5110810;28;20882;-65
2021/12/27 05:41:05;;;;;;;7.00;6.20;;;;;;;6.73;100.00;96941.81;5108157;28;20214;-65
2021/12/27 05:43:32;;;;;;;6.23;5.60;;;;;;;6.73;100.00;96940.03;5110578;28;20206;-65
2021/12/27 05:46:04;;;;;;;7.73;6.47;;;;;;;6.73;100.00;96942.66;5110470;28;20694;-64
2021/12/27 05:48:30;;;;;;;7.93;6.57;;;;;;;6.80;100.00;96938.66;5110923;28;20210;-65
2021/12/27 05:50:57;;;;;;;8.80;6.33;;;;;;;6.75;100.00;96935.53;5108052;28;20213;-64
2021/12/27 05:53:23;;;;;;;9.17;6.27;;;;;;;6.74;100.00;96931.22;5110899;28;20218;-64
2021/12/27 05:55:51;;;;;;;8.33;6.17;;;;;;;6.72;100.00;96940.16;5109074;28;20740;-65
2021/12/27 05:58:17;;;;;;;6.83;6.07;;;;;;;6.73;100.00;96932.16;5110852;28;20297;-64
2021/12/27 06:00:44;;;;;;;7.80;6.17;;;;;;;6.78;100.00;96929.22;5111352;28;20221;-64
2021/12/27 06:03:12;;;;;;;6.17;5.00;;;;;;;6.74;100.00;96927.75;5114952;28;20227;-66
2021/12/27 06:05:38;;;;;;;6.57;5.60;;;;;;;6.73;100.00;96923.44;5114853;28;20225;-64
2021/12/27 06:08:05;;;;;;;6.17;5.20;;;;;;;6.75;100.00;96917.13;5114459;28;20259;-64
2021/12/27 06:10:31;;;;;;;5.63;5.10;;;;;;;6.72;100.00;96917.34;5114628;28;20218;-65
2021/12/27 06:12:58;;;;;;;5.70;5.10;;;;;;;6.69;100.00;96903.59;5099412;28;20216;-65
2021/12/27 06:15:24;;;;;;;6.27;5.67;;;;;;;6.66;100.00;96915.16;5099837;28;20332;-64
2021/12/27 06:17:51;;;;;;;5.30;4.80;;;;;;;6.61;100.00;96917.31;5099691;28;20210;-65
2021/12/27 06:20:19;;;;;;;5.80;4.73;;;;;;;6.58;100.00;96914.03;5101943;28;20222;-65
2021/12/27 06:22:49;;;;;;;6.00;5.37;;;;;;;6.54;100.00;96921.31;5097986;28;20218;-64
2021/12/27 06:25:15;;;;;;;5.93;5.33;;;;;;;6.50;100.00;96909.38;5099454;28;20225;-65
2021/12/27 06:27:42;;;;;;;6.80;5.00;;;;;;;6.44;100.00;96915.06;5099489;28;20232;-64
2021/12/27 06:30:10;;;;;;;6.37;5.30;;;;;;;6.36;100.00;96906.88;5101643;28;20238;-65
2021/12/27 06:32:38;;;;;;;5.50;5.00;;;;;;;6.30;100.00;96909.13;5099157;28;20221;-66
2021/12/27 06:35:06;;;;;;;6.07;4.83;;;;;;;6.16;100.00;96914.53;5099187;28;20207;-66
2021/12/27 06:37:34;;;;;;;5.40;4.90;;;;;;;6.00;100.00;96909.53;5099274;28;20221;-66
2021/12/27 06:40:01;;;;;;;6.07;5.17;;;;;;;5.88;100.00;96914.78;5101578;28;20217;-66
2021/12/27 06:42:27;;;;;;;5.73;4.60;;;;;;;5.65;100.00;96912.88;5099228;28;20229;-66
2021/12/27 06:44:54;;;;;;;4.33;3.93;;;;;;;5.37;100.00;96908.69;5098851;28;20224;-65
2021/12/27 06:47:20;;;;;;;5.57;4.00;;;;;;;5.12;100.00;96902.59;5098837;28;20241;-65
2021/12/27 06:49:48;;;;;;;5.50;4.60;;;;;;;4.91;100.00;96907.47;5100045;28;20213;-65
2021/12/27 06:52:14;;;;;;;4.97;4.10;;;;;;;4.77;100.00;96902.28;5098679;28;20213;-65
2021/12/27 06:54:42;;;;;;;5.73;5.17;;;;;;;4.60;100.00;96899.97;5098694;28;20576;-65
2021/12/27 06:57:09;;;;;;;6.03;5.00;;;;;;;4.59;100.00;96903.50;5098884;28;20240;-65
2021/12/27 06:59:36;;;;;;;5.73;5.03;;;;;;;4.56;100.00;96903.72;5101092;28;20215;-64
2021/12/27 07:02:03;;;;;;;5.90;5.30;;;;;;;4.49;100.00;96906.81;5098922;28;20221;-65
2021/12/27 07:04:31;;;;;;;7.70;6.00;;;;;;;4.48;100.00;96911.22;5098731;28;20220;-65
2021/12/27 07:06:57;;;;;;;5.73;5.07;;;;;;;4.45;100.00;96911.41;5098603;28;20680;-65
2021/12/27 07:09:24;;;;;;;6.53;5.73;;;;;;;4.33;100.00;96901.72;5100682;28;20213;-65
2021/12/27 07:11:52;;;;;;;6.63;5.70;;;;;;;4.24;100.00;96902.34;5098016;28;20222;-65
2021/12/27 07:14:18;;;;;;;5.90;5.30;;;;;;;4.17;100.00;96895.78;5096898;28;20212;-65
2021/12/27 07:16:45;;;;;;;5.80;5.20;;;;;;;4.05;100.00;96911.41;5098240;28;20216;-66
2021/12/27 07:19:11;;;;;;;6.60;6.00;;;;;;;3.90;100.00;96913.22;5100006;28;20223;-66
2021/12/27 07:21:38;;;;;;;7.60;5.80;;;;;;;3.87;100.00;96907.34;5099288;28;20579;-66
2021/12/27 07:24:06;;;;;;;7.60;6.00;;;;;;;3.86;100.00;96905.66;5109042;28;20226;-66
2021/12/27 07:26:32;;;;;;;8.17;6.67;;;;;;;3.93;100.00;96906.97;5098292;28;20241;-65
2021/12/27 07:29:00;;;;;;;8.13;6.53;;;;;;;4.00;100.00;96903.88;5099479;28;20220;-66
2021/12/27 07:31:26;;;;;;;9.63;7.13;;;;;;;4.19;100.00;96899.16;5099490;28;20238;-65
2021/12/27 07:33:54;;;;;;;10.70;7.70;;;;;;;4.28;100.00;96897.75;5097928;28;20211;-65
2021/12/27 07:36:21;;;;;;;9.23;7.37;;;;;;;4.41;100.00;96899.44;5097902;28;20691;-65
2021/12/27 07:38:47;;;;;;;9.20;7.23;;;;;;;4.58;100.00;96896.59;5099184;28;20224;-65
2021/12/27 07:41:14;;;;;;;9.13;7.23;;;;;;;4.74;100.00;96899.03;5097950;28;20229;-65
2021/12/27 07:43:40;;;;;;;9.83;7.20;;;;;;;4.84;100.00;96900.94;5098231;28;20213;-65
2021/12/27 07:46:08;;;;;;;11.13;8.10;;;;;;;4.96;100.00;96901.94;5097903;28;20223;-65
2021/12/27 07:48:34;;;;;;;9.13;7.83;;;;;;;5.10;100.00;96900.06;5098589;28;20235;-65
2021/12/27 07:51:01;;;;;;;10.70;9.10;;;;;;;5.25;100.00;96896.41;5099457;28;20664;-65
2021/12/27 07:53:28;;;;;;;11.37;8.60;;;;;;;5.34;100.00;96898.44;5097838;28;20214;-65
2021/12/27 07:55:54;;;;;;;10.80;8.30;;;;;;;5.37;100.00;96894.75;5097932;28;20240;-65
2021/12/27 07:58:21;;;;;;;9.20;8.00;;;;;;;5.41;100.00;96888.34;5097598;28;20673;-65
2021/12/27 08:00:50;;;;;;;9.80;8.17;;;;;;;5.41;100.00;96893.59;5100180;28;20222;-65
2021/12/27 08:03:18;;;;;;;10.93;8.50;;;;;;;5.41;100.00;96888.34;5097276;28;20257;-65
2021/12/27 08:05:44;;;;;;;11.60;9.10;;;;;;;5.46;100.00;96892.34;5095535;28;20239;-65
2021/12/27 08:08:11;;;;;;;12.30;9.07;;;;;;;5.52;100.00;96891.06;5105422;28;20701;-66
2021/12/27 08:10:37;;;;;;;10.70;8.20;;;;;;;5.57;100.00;96895.03;5099670;28;20211;-65
2021/12/27 08:13:05;;;;;;;11.93;8.77;;;;;;;5.67;100.00;96890.84;5097178;28;20216;-66
2021/12/27 08:15:32;;;;;;;12.20;9.53;;;;;;;5.75;100.00;96888.53;5097438;28;20221;-66
2021/12/27 08:17:58;;;;;;;12.53;9.23;;;;;;;5.75;100.00;96883.28;5097253;28;20228;-66
2021/12/27 08:20:26;;;;;;;12.50;9.03;;;;;;;5.78;100.00;96879.63;5099552;28;20223;-65
2021/12/27 08:22:52;;;;;;;9.73;7.93;;;;;;;5.69;100.00;96891.56;5096922;28;20594;-65
2021/12/27 08:25:19;;;;;;;10.83;8.30;;;;;;;5.56;100.00;96893.38;5096903;28;20676;-66
2021/12/27 08:27:46;;;;;;;11.27;8.77;;;;;;;5.52;100.00;96897.16;5097048;28;20607;-65
2021/12/27 08:30:14;;;;;;;11.90;8.53;;;;;;;5.57;100.00;96897.66;5099601;28;20253;-65
2021/12/27 08:32:45;;;;;;;9.13;8.13;;;;;;;5.63;100.00;96899.03;5095163;28;20223;-65
2021/12/27 08:35:12;;;;;;;11.80;9.10;;;;;;;5.72;100.00;96896.63;5094644;28;20218;-66
2021/12/27 08:37:41;;;;;;;17.40;10.40;;;;;;;5.87;100.00;96895.56;5103612;28;20212;-65
2021/12/27 08:40:09;;;;;;;12.80;9.63;;;;;;;6.03;100.00;96896.19;5108630;28;20576;-65
2021/12/27 08:42:35;;;;;;;13.63;9.23;;;;;;;6.10;100.00;96900.03;5111240;28;20209;-65
2021/12/27 08:45:03;;;;;;;13.97;10.37;;;;;;;6.28;100.00;96890.88;5111913;28;20663;-65
2021/12/27 08:47:30;;;;;;;13.20;10.57;;;;;;;6.46;100.00;96897.41;5111812;28;20644;-66
2021/12/27 08:49:56;;;;;;;14.00;10.30;;;;;;;6.63;100.00;96893.56;5109415;28;20216;-66
2021/12/27 08:52:23;;;;;;;12.17;10.07;;;;;;;6.78;100.00;96897.69;5111848;28;20221;-66
2021/12/27 08:54:51;;;;;;;12.17;9.57;;;;;;;6.83;100.00;96885.91;5111740;28;20212;-66
2021/12/27 08:57:17;;;;;;;12.57;9.07;;;;;;;6.88;100.00;96889.03;5111415;28;20213;-66
2021/12/27 08:59:44;;;;;;;11.60;9.43;;;;;;;6.99;100.00;96881.19;5107053;28;20236;-67
2021/12/27 09:02:12;;;;;;;11.13;9.87;;;;;;;7.15;100.00;96879.06;5111309;28;20214;-66
2021/12/27 09:04:38;;;;;;;12.60;9.63;;;;;;;7.34;100.00;96877.56;5111822;28;20215;-66
2021/12/27 09:07:05;;;;;;;10.63;8.57;;;;;;;7.46;100.00;96883.66;5111312;28;20244;-66
2021/12/27 09:09:32;;;;;;;10.40;8.20;;;;;;;7.53;100.00;96882.28;5110927;28;20578;-66
2021/12/27 09:12:00;;;;;;;8.10;7.30;;;;;;;7.63;100.00;96883.22;5111224;28;20271;-68
2021/12/27 09:14:27;;;;;;;8.50;6.90;;;;;;;7.62;100.00;96876.28;5111161;28;20229;-67
2021/12/27 09:16:53;;;;;;;6.80;5.67;;;;;;;7.56;100.00;96877.63;5111222;28;20214;-68
2021/12/27 09:19:20;;;;;;;6.53;5.87;;;;;;;7.45;100.00;96879.38;5108331;28;20219;-68
2021/12/27 09:21:46;;;;;;;6.03;5.43;;;;;;;7.45;100.00;96874.13;5110880;28;20214;-68
2021/12/27 09:24:13;;;;;;;8.10;6.03;;;;;;;7.39;100.00;96874.59;5109555;28;20676;-68
2021/12/27 09:26:40;;;;;;;6.80;6.10;;;;;;;7.43;100.00;96881.28;5111066;28;20284;-68
2021/12/27 09:29:08;;;;;;;7.90;5.87;;;;;;;7.44;100.00;96882.97;5108554;28;20221;-68
2021/12/27 09:31:35;;;;;;;6.40;5.67;;;;;;;7.49;100.00;96886.06;5095664;28;20738;-68
2021/12/27 09:34:02;;;;;;;6.87;5.87;;;;;;;7.51;100.00;96874.50;5095412;28;20230;-68
2021/12/27 09:36:29;;;;;;;7.40;5.57;;;;;;;7.51;100.00;96879.75;5095880;28;20221;-68
2021/12/27 09:38:55;;;;;;;6.33;5.37;;;;;;;7.46;100.00;96875.78;5098161;28;20220;-68
2021/12/27 09:41:22;;;;;;;6.07;5.47;;;;;;;7.40;100.00;96871.00;5109577;28;20223;-68
2021/12/27 09:43:50;;;;;;;6.53;5.17;;;;;;;7.40;100.00;96881.50;5095646;28;20241;-68
2021/12/27 09:46:19;;;;;;;5.97;4.93;;;;;;;7.36;100.00;96877.47;5095858;28;20246;-68
2021/12/27 09:48:47;;;;;;;6.47;4.73;;;;;;;7.29;100.00;96869.19;5098130;28;20237;-68
2021/12/27 09:51:14;;;;;;;5.77;5.00;;;;;;;7.28;100.00;96858.81;5094080;28;20211;-68
2021/12/27 09:53:40;;;;;;;5.77;4.93;;;;;;;7.28;100.00;96857.00;5102625;28;20218;-68
2021/12/27 09:56:08;;;;;;;5.70;5.13;;;;;;;7.29;100.00;96863.13;5095585;28;20291;-68
2021/12/27 09:58:34;;;;;;;5.90;5.20;;;;;;;7.28;100.00;96862.25;5097914;28;20214;-68
2021/12/27 10:01:03;;;;;;;5.83;4.80;;;;;;;7.37;100.00;96860.72;5095541;28;20296;-68
2021/12/27 10:03:31;;;;;;;6.03;5.40;;;;;;;7.46;100.00;96863.50;5095658;28;20303;-68
2021/12/27 10:06:09;;;;;;;7.27;5.53;;;;;;;7.65;100.00;96852.41;5095831;28;20211;-68
2021/12/27 10:08:35;;;;;;;6.37;4.60;;;;;;;7.79;100.00;96857.41;5102499;28;20699;-68
2021/12/27 10:11:02;;;;;;;4.97;4.50;;;;;;;7.97;100.00;96850.72;5110577;28;20222;-68
2021/12/27 10:13:29;;;;;;;5.30;4.80;;;;;;;8.20;100.00;96841.88;5110711;28;20206;-69
2021/12/27 10:15:56;;;;;;;4.97;4.33;;;;;;;8.50;100.00;96842.84;5108441;28;20222;-70
2021/12/27 10:18:24;;;;;;;3.63;3.30;;;;;;;8.83;100.00;96829.56;5107845;28;20214;-69
2021/12/27 10:20:52;;;;;;;5.17;3.83;;;;;;;9.06;100.00;96835.56;5110429;28;20214;-69
2021/12/27 10:23:18;;;;;;;3.70;3.30;;;;;;;9.13;100.00;96826.16;5110596;28;20215;-69
2021/12/27 10:25:49;;;;;;;3.30;3.00;;;;;;;9.16;100.00;96823.25;5110347;28;20218;-69
2021/12/27 10:28:15;;;;;;;3.93;3.30;;;;;;;8.97;100.00;96831.03;5107829;28;20242;-69
2021/12/27 10:30:45;;;;;;;4.10;3.50;;;;;;;8.83;100.00;96828.72;5110480;28;20238;-69
2021/12/27 10:33:13;;;;;;;3.43;2.83;;;;;;;8.71;100.00;96827.09;5110295;28;20290;-69
2021/12/27 10:35:42;;;;;;;4.07;3.40;;;;;;;8.63;100.00;96826.91;5110159;28;20688;-69
2021/12/27 10:38:19;;;;;;;4.30;3.60;;;;;;;8.56;100.00;96817.84;5108036;28;21024;-69
2021/12/27 10:40:54;;;;;;;4.47;3.50;;;;;;;8.43;100.00;96822.41;5110084;28;20687;-69
2021/12/27 10:43:35;;;;;;;4.90;3.73;;;;;;;8.43;100.00;96817.13;5108956;28;20236;-69
2021/12/27 10:46:02;;;;;;;4.80;4.00;;;;;;;8.44;100.00;96805.66;5110113;28;20214;-69
2021/12/27 10:48:33;;;;;;;3.87;3.57;;;;;;;8.21;100.00;96817.22;5114051;28;20248;-69
2021/12/27 10:51:00;;;;;;;3.90;3.57;;;;;;;8.08;100.00;96811.25;5114181;28;20604;-69
2021/12/27 10:53:28;;;;;;;4.30;3.70;;;;;;;8.07;100.00;96804.28;5113136;28;20215;-68
2021/12/27 10:55:56;;;;;;;5.33;4.30;;;;;;;7.96;100.00;96804.31;5112246;28;20211;-69
2021/12/27 10:58:25;;;;;;;5.23;3.90;;;;;;;7.93;100.00;96801.91;5113936;28;20232;-69
2021/12/27 11:00:55;;;;;;;4.47;4.07;;;;;;;7.88;100.00;96798.81;5113604;28;20214;-69
2021/12/27 11:03:27;;;;;;;4.67;4.17;;;;;;;7.93;100.00;96799.28;5112459;28;20217;-69
2021/12/27 11:05:54;;;;;;;4.50;4.10;;;;;;;8.00;100.00;96803.09;5113384;28;20241;-69
2021/12/27 11:08:21;;;;;;;5.10;4.60;;;;;;;8.00;100.00;96797.84;5112614;28;20244;-69
2021/12/27 11:10:49;;;;;;;4.80;4.30;;;;;;;7.97;100.00;96806.00;5104918;28;20215;-68
2021/12/27 11:13:16;;;;;;;4.40;3.93;;;;;;;8.01;100.00;96805.63;5100590;28;20216;-69
2021/12/27 11:15:42;;;;;;;5.03;4.37;;;;;;;8.01;100.00;96802.13;5098835;28;20694;-69
2021/12/27 11:18:12;;;;;;;4.73;4.30;;;;;;;8.12;100.00;96802.13;5098534;28;20220;-68
2021/12/27 11:20:44;;;;;;;5.10;3.70;;;;;;;8.18;100.00;96796.34;5098473;28;20219;-69
2021/12/27 11:23:11;;;;;;;5.93;3.50;;;;;;;8.14;100.00;96794.97;5101041;28;20216;-68
2021/12/27 11:25:41;;;;;;;4.50;3.87;;;;;;;8.13;100.00;96795.88;5098469;28;20211;-68
2021/12/27 11:28:27;;;;;;;4.50;4.00;;;;;;;7.97;100.00;96792.84;5097815;28;20250;-69
2021/12/27 11:30:54;;;;;;;5.17;3.97;;;;;;;7.95;100.00;96781.63;5099566;28;20235;-69